sensor_id;sensor_type;location;lat;lon;timestamp;P1;durP1;ratioP1;P2;durP2;ratioP2
47912;SDS011;33676;51.006;17.180;2023-03-01T00:01:53;61.00;;;37.80;;
47912;SDS011;33676;51.006;17.180;2023-03-01T00:04:22;55.60;;;36.20;;
47912;SDS011;33676;51.006;17.180;2023-03-01T00:06:50;60.30;;;38.20;;
47912;SDS011;33676;51.006;17.180;2023-03-01T00:09:19;61.00;;;38.20;;
47912;SDS011;33676;51.006;17.180;2023-03-01T00:11:47;53.70;;;35.60;;
47912;SDS011;33676;51.006;17.180;2023-03-01T00:14:16;57.30;;;36.30;;
47912;SDS011;33676;51.006;17.180;2023-03-01T00:16:45;63.20;;;37.60;;
47912;SDS011;33676;51.006;17.180;2023-03-01T00:19:16;58.50;;;40.10;;
47912;SDS011;33676;51.006;17.180;2023-03-01T00:21:47;58.30;;;36.90;;
47912;SDS011;33676;51.006;17.180;2023-03-01T00:24:16;56.60;;;37.00;;
47912;SDS011;33676;51.006;17.180;2023-03-01T00:26:45;63.40;;;39.20;;
47912;SDS011;33676;51.006;17.180;2023-03-01T00:29:14;73.20;;;43.00;;
47912;SDS011;33676;51.006;17.180;2023-03-01T00:31:43;68.70;;;41.70;;
47912;SDS011;33676;51.006;17.180;2023-03-01T00:34:11;54.30;;;37.20;;
47912;SDS011;33676;51.006;17.180;2023-03-01T00:36:40;64.30;;;39.50;;
47912;SDS011;33676;51.006;17.180;2023-03-01T00:39:13;68.90;;;41.40;;
47912;SDS011;33676;51.006;17.180;2023-03-01T00:41:42;69.00;;;38.70;;
47912;SDS011;33676;51.006;17.180;2023-03-01T00:44:11;61.20;;;38.40;;
47912;SDS011;33676;51.006;17.180;2023-03-01T00:46:39;61.10;;;37.90;;
47912;SDS011;33676;51.006;17.180;2023-03-01T00:49:08;72.00;;;44.80;;
47912;SDS011;33676;51.006;17.180;2023-03-01T00:51:37;74.60;;;46.60;;
47912;SDS011;33676;51.006;17.180;2023-03-01T00:54:08;76.60;;;48.70;;
47912;SDS011;33676;51.006;17.180;2023-03-01T00:56:37;86.70;;;50.60;;
47912;SDS011;33676;51.006;17.180;2023-03-01T00:59:05;89.20;;;52.50;;
47912;SDS011;33676;51.006;17.180;2023-03-01T01:01:34;77.70;;;46.10;;
47912;SDS011;33676;51.006;17.180;2023-03-01T01:04:05;81.70;;;48.10;;
47912;SDS011;33676;51.006;17.180;2023-03-01T01:06:41;76.90;;;46.80;;
47912;SDS011;33676;51.006;17.180;2023-03-01T01:09:13;72.60;;;45.30;;
47912;SDS011;33676;51.006;17.180;2023-03-01T01:11:48;80.80;;;45.90;;
47912;SDS011;33676;51.006;17.180;2023-03-01T01:14:18;67.70;;;40.80;;
47912;SDS011;33676;51.006;17.180;2023-03-01T01:16:47;66.90;;;39.40;;
47912;SDS011;33676;51.006;17.180;2023-03-01T01:19:16;76.90;;;47.50;;
47912;SDS011;33676;51.006;17.180;2023-03-01T01:21:44;74.50;;;47.80;;
47912;SDS011;33676;51.006;17.180;2023-03-01T01:24:14;75.40;;;46.80;;
47912;SDS011;33676;51.006;17.180;2023-03-01T01:26:43;68.30;;;47.50;;
47912;SDS011;33676;51.006;17.180;2023-03-01T01:29:12;69.40;;;45.00;;
47912;SDS011;33676;51.006;17.180;2023-03-01T01:31:41;145.00;;;95.00;;
47912;SDS011;33676;51.006;17.180;2023-03-01T01:34:17;113.10;;;70.30;;
47912;SDS011;33676;51.006;17.180;2023-03-01T01:36:48;98.00;;;58.30;;
47912;SDS011;33676;51.006;17.180;2023-03-01T01:39:20;142.10;;;96.50;;
47912;SDS011;33676;51.006;17.180;2023-03-01T01:41:49;97.60;;;65.20;;
47912;SDS011;33676;51.006;17.180;2023-03-01T01:44:24;74.10;;;47.40;;
47912;SDS011;33676;51.006;17.180;2023-03-01T01:46:57;74.00;;;45.90;;
47912;SDS011;33676;51.006;17.180;2023-03-01T01:49:44;67.50;;;43.50;;
47912;SDS011;33676;51.006;17.180;2023-03-01T01:52:24;68.50;;;44.50;;
47912;SDS011;33676;51.006;17.180;2023-03-01T01:55:00;65.10;;;41.30;;
47912;SDS011;33676;51.006;17.180;2023-03-01T01:57:40;70.50;;;43.80;;
47912;SDS011;33676;51.006;17.180;2023-03-01T02:00:24;72.00;;;46.10;;
47912;SDS011;33676;51.006;17.180;2023-03-01T02:03:00;122.10;;;74.70;;
47912;SDS011;33676;51.006;17.180;2023-03-01T02:05:53;79.60;;;48.40;;
47912;SDS011;33676;51.006;17.180;2023-03-01T02:08:33;78.60;;;45.60;;
47912;SDS011;33676;51.006;17.180;2023-03-01T02:11:06;76.20;;;48.60;;
47912;SDS011;33676;51.006;17.180;2023-03-01T02:13:35;88.20;;;59.30;;
47912;SDS011;33676;51.006;17.180;2023-03-01T02:16:08;80.20;;;48.90;;
47912;SDS011;33676;51.006;17.180;2023-03-01T02:18:39;70.00;;;46.00;;
47912;SDS011;33676;51.006;17.180;2023-03-01T02:21:38;70.30;;;47.30;;
47912;SDS011;33676;51.006;17.180;2023-03-01T02:24:23;70.80;;;45.50;;
47912;SDS011;33676;51.006;17.180;2023-03-01T02:27:14;68.60;;;43.80;;
47912;SDS011;33676;51.006;17.180;2023-03-01T02:29:46;77.40;;;45.80;;
47912;SDS011;33676;51.006;17.180;2023-03-01T02:32:15;71.30;;;44.80;;
47912;SDS011;33676;51.006;17.180;2023-03-01T02:34:54;90.60;;;58.80;;
47912;SDS011;33676;51.006;17.180;2023-03-01T02:37:24;69.10;;;44.00;;
47912;SDS011;33676;51.006;17.180;2023-03-01T02:39:59;79.00;;;49.80;;
47912;SDS011;33676;51.006;17.180;2023-03-01T02:42:36;72.70;;;44.60;;
47912;SDS011;33676;51.006;17.180;2023-03-01T02:45:15;70.70;;;44.10;;
47912;SDS011;33676;51.006;17.180;2023-03-01T02:47:44;72.70;;;42.10;;
47912;SDS011;33676;51.006;17.180;2023-03-01T02:54:02;62.70;;;39.50;;
47912;SDS011;33676;51.006;17.180;2023-03-01T02:56:39;67.90;;;41.40;;
47912;SDS011;33676;51.006;17.180;2023-03-01T02:59:09;67.70;;;42.70;;
47912;SDS011;33676;51.006;17.180;2023-03-01T03:01:38;66.10;;;41.80;;
47912;SDS011;33676;51.006;17.180;2023-03-01T03:04:10;74.10;;;45.90;;
47912;SDS011;33676;51.006;17.180;2023-03-01T03:06:45;72.30;;;45.00;;
47912;SDS011;33676;51.006;17.180;2023-03-01T03:09:16;77.40;;;46.90;;
47912;SDS011;33676;51.006;17.180;2023-03-01T03:11:46;76.80;;;44.00;;
47912;SDS011;33676;51.006;17.180;2023-03-01T03:14:17;66.60;;;44.40;;
47912;SDS011;33676;51.006;17.180;2023-03-01T03:16:48;75.80;;;45.40;;
47912;SDS011;33676;51.006;17.180;2023-03-01T03:19:19;71.20;;;44.30;;
47912;SDS011;33676;51.006;17.180;2023-03-01T03:21:48;76.10;;;46.20;;
47912;SDS011;33676;51.006;17.180;2023-03-01T03:24:17;75.60;;;44.60;;
47912;SDS011;33676;51.006;17.180;2023-03-01T03:26:46;79.10;;;50.00;;
47912;SDS011;33676;51.006;17.180;2023-03-01T03:29:15;75.20;;;47.50;;
47912;SDS011;33676;51.006;17.180;2023-03-01T03:31:46;72.50;;;46.30;;
47912;SDS011;33676;51.006;17.180;2023-03-01T03:34:14;79.20;;;46.80;;
47912;SDS011;33676;51.006;17.180;2023-03-01T03:36:46;84.20;;;50.80;;
47912;SDS011;33676;51.006;17.180;2023-03-01T03:39:14;82.60;;;51.40;;
47912;SDS011;33676;51.006;17.180;2023-03-01T03:41:43;77.60;;;49.00;;
47912;SDS011;33676;51.006;17.180;2023-03-01T03:44:11;80.00;;;51.00;;
47912;SDS011;33676;51.006;17.180;2023-03-01T03:46:39;86.90;;;51.40;;
47912;SDS011;33676;51.006;17.180;2023-03-01T03:49:08;80.20;;;46.90;;
47912;SDS011;33676;51.006;17.180;2023-03-01T03:51:36;76.70;;;47.30;;
47912;SDS011;33676;51.006;17.180;2023-03-01T03:54:05;77.30;;;48.00;;
47912;SDS011;33676;51.006;17.180;2023-03-01T03:56:33;78.20;;;51.50;;
47912;SDS011;33676;51.006;17.180;2023-03-01T03:59:03;87.70;;;57.60;;
47912;SDS011;33676;51.006;17.180;2023-03-01T04:01:31;81.90;;;50.90;;
47912;SDS011;33676;51.006;17.180;2023-03-01T04:03:59;83.60;;;50.40;;
47912;SDS011;33676;51.006;17.180;2023-03-01T04:06:32;81.30;;;49.80;;
47912;SDS011;33676;51.006;17.180;2023-03-01T04:09:00;90.20;;;56.10;;
47912;SDS011;33676;51.006;17.180;2023-03-01T04:11:30;90.80;;;53.70;;
47912;SDS011;33676;51.006;17.180;2023-03-01T04:13:59;90.70;;;55.00;;
47912;SDS011;33676;51.006;17.180;2023-03-01T04:16:28;83.00;;;48.00;;
47912;SDS011;33676;51.006;17.180;2023-03-01T04:18:57;75.10;;;47.50;;
47912;SDS011;33676;51.006;17.180;2023-03-01T04:21:28;77.20;;;45.80;;
47912;SDS011;33676;51.006;17.180;2023-03-01T04:23:59;77.10;;;45.10;;
47912;SDS011;33676;51.006;17.180;2023-03-01T04:26:30;74.70;;;48.20;;
47912;SDS011;33676;51.006;17.180;2023-03-01T04:28:59;79.40;;;49.60;;
47912;SDS011;33676;51.006;17.180;2023-03-01T04:31:28;79.40;;;48.60;;
47912;SDS011;33676;51.006;17.180;2023-03-01T04:33:57;74.10;;;45.80;;
47912;SDS011;33676;51.006;17.180;2023-03-01T04:36:27;71.40;;;47.20;;
47912;SDS011;33676;51.006;17.180;2023-03-01T04:38:58;84.10;;;50.70;;
47912;SDS011;33676;51.006;17.180;2023-03-01T04:41:27;83.00;;;46.00;;
47912;SDS011;33676;51.006;17.180;2023-03-01T04:43:55;77.80;;;49.50;;
47912;SDS011;33676;51.006;17.180;2023-03-01T04:46:24;74.40;;;46.70;;
47912;SDS011;33676;51.006;17.180;2023-03-01T04:48:53;79.30;;;44.90;;
47912;SDS011;33676;51.006;17.180;2023-03-01T04:51:22;66.20;;;41.40;;
47912;SDS011;33676;51.006;17.180;2023-03-01T04:53:50;70.70;;;47.30;;
47912;SDS011;33676;51.006;17.180;2023-03-01T04:56:19;77.60;;;47.10;;
47912;SDS011;33676;51.006;17.180;2023-03-01T04:58:48;72.40;;;42.40;;
47912;SDS011;33676;51.006;17.180;2023-03-01T05:01:18;71.70;;;46.10;;
47912;SDS011;33676;51.006;17.180;2023-03-01T05:03:49;68.90;;;44.70;;
47912;SDS011;33676;51.006;17.180;2023-03-01T05:06:19;73.00;;;43.40;;
47912;SDS011;33676;51.006;17.180;2023-03-01T05:08:49;83.80;;;47.00;;
47912;SDS011;33676;51.006;17.180;2023-03-01T05:11:17;77.40;;;48.20;;
47912;SDS011;33676;51.006;17.180;2023-03-01T05:13:48;75.80;;;48.10;;
47912;SDS011;33676;51.006;17.180;2023-03-01T05:16:25;80.30;;;50.90;;
47912;SDS011;33676;51.006;17.180;2023-03-01T05:19:04;73.00;;;46.80;;
47912;SDS011;33676;51.006;17.180;2023-03-01T05:21:45;77.00;;;48.60;;
47912;SDS011;33676;51.006;17.180;2023-03-01T05:24:34;69.10;;;43.80;;
47912;SDS011;33676;51.006;17.180;2023-03-01T05:27:03;72.00;;;44.90;;
47912;SDS011;33676;51.006;17.180;2023-03-01T05:29:32;82.60;;;47.40;;
47912;SDS011;33676;51.006;17.180;2023-03-01T05:32:05;71.70;;;45.00;;
47912;SDS011;33676;51.006;17.180;2023-03-01T05:34:40;78.90;;;48.50;;
47912;SDS011;33676;51.006;17.180;2023-03-01T05:37:14;80.10;;;51.20;;
47912;SDS011;33676;51.006;17.180;2023-03-01T05:39:43;73.10;;;46.50;;
47912;SDS011;33676;51.006;17.180;2023-03-01T05:42:11;87.10;;;47.00;;
47912;SDS011;33676;51.006;17.180;2023-03-01T05:44:45;91.50;;;50.90;;
47912;SDS011;33676;51.006;17.180;2023-03-01T05:47:13;79.40;;;47.20;;
47912;SDS011;33676;51.006;17.180;2023-03-01T05:49:45;82.20;;;48.20;;
47912;SDS011;33676;51.006;17.180;2023-03-01T05:52:13;69.40;;;47.20;;
47912;SDS011;33676;51.006;17.180;2023-03-01T05:54:47;82.00;;;47.60;;
47912;SDS011;33676;51.006;17.180;2023-03-01T05:57:15;87.50;;;52.00;;
47912;SDS011;33676;51.006;17.180;2023-03-01T05:59:49;97.40;;;50.50;;
47912;SDS011;33676;51.006;17.180;2023-03-01T06:02:23;77.00;;;47.30;;
47912;SDS011;33676;51.006;17.180;2023-03-01T06:04:55;81.50;;;45.80;;
47912;SDS011;33676;51.006;17.180;2023-03-01T06:07:23;77.70;;;43.80;;
47912;SDS011;33676;51.006;17.180;2023-03-01T06:09:55;73.90;;;43.90;;
47912;SDS011;33676;51.006;17.180;2023-03-01T06:12:24;76.60;;;46.70;;
47912;SDS011;33676;51.006;17.180;2023-03-01T06:14:52;78.30;;;47.60;;
47912;SDS011;33676;51.006;17.180;2023-03-01T06:17:21;76.10;;;46.50;;
47912;SDS011;33676;51.006;17.180;2023-03-01T06:19:49;69.70;;;46.90;;
47912;SDS011;33676;51.006;17.180;2023-03-01T06:22:18;76.70;;;50.00;;
47912;SDS011;33676;51.006;17.180;2023-03-01T06:24:49;74.60;;;45.20;;
47912;SDS011;33676;51.006;17.180;2023-03-01T06:27:17;76.80;;;49.40;;
47912;SDS011;33676;51.006;17.180;2023-03-01T06:29:46;83.90;;;51.00;;
47912;SDS011;33676;51.006;17.180;2023-03-01T06:32:14;81.60;;;53.00;;
47912;SDS011;33676;51.006;17.180;2023-03-01T06:34:43;89.50;;;56.30;;
47912;SDS011;33676;51.006;17.180;2023-03-01T06:37:12;85.50;;;52.00;;
47912;SDS011;33676;51.006;17.180;2023-03-01T06:39:40;104.10;;;59.60;;
47912;SDS011;33676;51.006;17.180;2023-03-01T06:42:09;92.30;;;56.50;;
47912;SDS011;33676;51.006;17.180;2023-03-01T06:44:38;96.20;;;52.10;;
47912;SDS011;33676;51.006;17.180;2023-03-01T06:47:06;104.10;;;59.30;;
47912;SDS011;33676;51.006;17.180;2023-03-01T06:49:35;87.90;;;53.60;;
47912;SDS011;33676;51.006;17.180;2023-03-01T06:52:04;99.80;;;66.80;;
47912;SDS011;33676;51.006;17.180;2023-03-01T06:54:32;112.60;;;69.20;;
47912;SDS011;33676;51.006;17.180;2023-03-01T06:57:01;93.70;;;60.90;;
47912;SDS011;33676;51.006;17.180;2023-03-01T06:59:29;94.60;;;60.90;;
47912;SDS011;33676;51.006;17.180;2023-03-01T07:01:58;93.00;;;58.60;;
47912;SDS011;33676;51.006;17.180;2023-03-01T07:04:26;90.90;;;56.70;;
47912;SDS011;33676;51.006;17.180;2023-03-01T07:06:57;84.40;;;59.50;;
47912;SDS011;33676;51.006;17.180;2023-03-01T07:09:25;92.70;;;59.70;;
47912;SDS011;33676;51.006;17.180;2023-03-01T07:11:54;93.10;;;56.20;;
47912;SDS011;33676;51.006;17.180;2023-03-01T07:14:27;101.00;;;66.50;;
47912;SDS011;33676;51.006;17.180;2023-03-01T07:17:01;104.80;;;64.10;;
47912;SDS011;33676;51.006;17.180;2023-03-01T07:19:29;105.40;;;59.20;;
47912;SDS011;33676;51.006;17.180;2023-03-01T07:21:58;104.20;;;63.80;;
47912;SDS011;33676;51.006;17.180;2023-03-01T07:24:26;93.70;;;59.50;;
47912;SDS011;33676;51.006;17.180;2023-03-01T07:26:55;88.40;;;55.20;;
47912;SDS011;33676;51.006;17.180;2023-03-01T07:29:23;83.90;;;53.20;;
47912;SDS011;33676;51.006;17.180;2023-03-01T07:31:52;87.30;;;54.10;;
47912;SDS011;33676;51.006;17.180;2023-03-01T07:34:20;83.60;;;50.50;;
47912;SDS011;33676;51.006;17.180;2023-03-01T07:36:49;84.30;;;55.00;;
47912;SDS011;33676;51.006;17.180;2023-03-01T07:39:18;86.10;;;56.10;;
47912;SDS011;33676;51.006;17.180;2023-03-01T07:41:47;74.70;;;48.70;;
47912;SDS011;33676;51.006;17.180;2023-03-01T07:44:15;79.20;;;48.40;;
47912;SDS011;33676;51.006;17.180;2023-03-01T07:46:45;73.20;;;50.00;;
47912;SDS011;33676;51.006;17.180;2023-03-01T07:49:17;69.10;;;45.00;;
47912;SDS011;33676;51.006;17.180;2023-03-01T07:51:48;71.80;;;46.70;;
47912;SDS011;33676;51.006;17.180;2023-03-01T07:54:17;70.90;;;47.20;;
47912;SDS011;33676;51.006;17.180;2023-03-01T07:56:46;68.20;;;46.30;;
47912;SDS011;33676;51.006;17.180;2023-03-01T07:59:14;68.50;;;43.80;;
47912;SDS011;33676;51.006;17.180;2023-03-01T08:01:43;68.60;;;47.30;;
47912;SDS011;33676;51.006;17.180;2023-03-01T08:04:12;81.80;;;51.80;;
47912;SDS011;33676;51.006;17.180;2023-03-01T08:06:40;75.50;;;50.10;;
47912;SDS011;33676;51.006;17.180;2023-03-01T08:09:09;93.40;;;60.60;;
47912;SDS011;33676;51.006;17.180;2023-03-01T08:11:37;87.50;;;59.00;;
47912;SDS011;33676;51.006;17.180;2023-03-01T08:14:06;74.90;;;53.60;;
47912;SDS011;33676;51.006;17.180;2023-03-01T08:16:35;83.70;;;53.70;;
47912;SDS011;33676;51.006;17.180;2023-03-01T08:19:11;70.70;;;49.30;;
47912;SDS011;33676;51.006;17.180;2023-03-01T08:21:40;95.70;;;65.30;;
47912;SDS011;33676;51.006;17.180;2023-03-01T08:24:08;72.70;;;50.00;;
47912;SDS011;33676;51.006;17.180;2023-03-01T08:26:38;72.20;;;46.00;;
47912;SDS011;33676;51.006;17.180;2023-03-01T08:29:06;67.30;;;45.00;;
47912;SDS011;33676;51.006;17.180;2023-03-01T08:31:37;76.20;;;48.80;;
47912;SDS011;33676;51.006;17.180;2023-03-01T08:34:10;70.80;;;47.70;;
47912;SDS011;33676;51.006;17.180;2023-03-01T08:36:42;69.70;;;46.90;;
47912;SDS011;33676;51.006;17.180;2023-03-01T08:39:15;80.90;;;48.90;;
47912;SDS011;33676;51.006;17.180;2023-03-01T08:41:45;70.40;;;49.80;;
47912;SDS011;33676;51.006;17.180;2023-03-01T08:44:15;81.80;;;53.60;;
47912;SDS011;33676;51.006;17.180;2023-03-01T08:46:50;70.90;;;46.90;;
47912;SDS011;33676;51.006;17.180;2023-03-01T08:49:19;59.30;;;41.20;;
47912;SDS011;33676;51.006;17.180;2023-03-01T08:51:48;96.50;;;56.40;;
47912;SDS011;33676;51.006;17.180;2023-03-01T08:54:19;71.10;;;42.70;;
47912;SDS011;33676;51.006;17.180;2023-03-01T08:56:49;56.40;;;39.70;;
47912;SDS011;33676;51.006;17.180;2023-03-01T08:59:18;58.70;;;37.40;;
47912;SDS011;33676;51.006;17.180;2023-03-01T09:01:47;58.20;;;40.00;;
47912;SDS011;33676;51.006;17.180;2023-03-01T09:04:15;56.50;;;37.30;;
47912;SDS011;33676;51.006;17.180;2023-03-01T09:06:44;53.90;;;39.90;;
47912;SDS011;33676;51.006;17.180;2023-03-01T09:09:14;58.30;;;40.50;;
47912;SDS011;33676;51.006;17.180;2023-03-01T09:11:45;55.60;;;38.40;;
47912;SDS011;33676;51.006;17.180;2023-03-01T09:14:14;52.60;;;37.40;;
47912;SDS011;33676;51.006;17.180;2023-03-01T09:16:43;46.40;;;31.40;;
47912;SDS011;33676;51.006;17.180;2023-03-01T09:19:11;48.00;;;33.60;;
47912;SDS011;33676;51.006;17.180;2023-03-01T09:21:40;47.50;;;33.50;;
47912;SDS011;33676;51.006;17.180;2023-03-01T09:24:13;52.00;;;34.70;;
47912;SDS011;33676;51.006;17.180;2023-03-01T09:26:43;44.40;;;33.80;;
47912;SDS011;33676;51.006;17.180;2023-03-01T09:41:44;48.50;;;36.60;;
47912;SDS011;33676;51.006;17.180;2023-03-01T09:46:55;41.80;;;28.70;;
47912;SDS011;33676;51.006;17.180;2023-03-01T09:49:28;35.50;;;27.30;;
47912;SDS011;33676;51.006;17.180;2023-03-01T09:52:24;35.80;;;27.20;;
47912;SDS011;33676;51.006;17.180;2023-03-01T09:55:12;29.80;;;22.90;;
47912;SDS011;33676;51.006;17.180;2023-03-01T09:57:55;32.00;;;24.50;;
47912;SDS011;33676;51.006;17.180;2023-03-01T10:00:46;28.80;;;24.10;;
47912;SDS011;33676;51.006;17.180;2023-03-01T10:06:49;26.50;;;22.30;;
47912;SDS011;33676;51.006;17.180;2023-03-01T10:09:33;25.80;;;22.50;;
47912;SDS011;33676;51.006;17.180;2023-03-01T10:12:07;26.90;;;22.90;;
47912;SDS011;33676;51.006;17.180;2023-03-01T10:31:51;27.50;;;21.60;;
47912;SDS011;33676;51.006;17.180;2023-03-01T10:34:33;28.60;;;23.50;;
47912;SDS011;33676;51.006;17.180;2023-03-01T10:37:18;27.20;;;24.10;;
47912;SDS011;33676;51.006;17.180;2023-03-01T10:40:01;26.20;;;22.50;;
47912;SDS011;33676;51.006;17.180;2023-03-01T10:43:10;31.50;;;23.40;;
47912;SDS011;33676;51.006;17.180;2023-03-01T10:45:40;26.80;;;23.90;;
47912;SDS011;33676;51.006;17.180;2023-03-01T10:48:20;33.00;;;29.40;;
47912;SDS011;33676;51.006;17.180;2023-03-01T10:51:04;25.10;;;21.40;;
47912;SDS011;33676;51.006;17.180;2023-03-01T10:53:55;23.10;;;19.70;;
47912;SDS011;33676;51.006;17.180;2023-03-01T10:56:23;23.70;;;21.10;;
47912;SDS011;33676;51.006;17.180;2023-03-01T10:59:02;24.60;;;20.80;;
47912;SDS011;33676;51.006;17.180;2023-03-01T11:01:33;22.10;;;19.40;;
47912;SDS011;33676;51.006;17.180;2023-03-01T11:06:39;23.80;;;20.90;;
47912;SDS011;33676;51.006;17.180;2023-03-01T11:09:23;23.70;;;21.00;;
47912;SDS011;33676;51.006;17.180;2023-03-01T11:11:56;26.20;;;22.00;;
47912;SDS011;33676;51.006;17.180;2023-03-01T11:14:32;23.20;;;20.10;;
47912;SDS011;33676;51.006;17.180;2023-03-01T11:17:11;24.60;;;20.40;;
47912;SDS011;33676;51.006;17.180;2023-03-01T11:20:20;27.30;;;22.30;;
47912;SDS011;33676;51.006;17.180;2023-03-01T11:25:33;21.60;;;18.80;;
47912;SDS011;33676;51.006;17.180;2023-03-01T11:28:06;22.70;;;19.90;;
47912;SDS011;33676;51.006;17.180;2023-03-01T11:36:46;22.50;;;19.80;;
47912;SDS011;33676;51.006;17.180;2023-03-01T11:39:37;20.80;;;18.70;;
47912;SDS011;33676;51.006;17.180;2023-03-01T11:42:19;22.30;;;19.70;;
47912;SDS011;33676;51.006;17.180;2023-03-01T11:45:22;20.20;;;18.00;;
47912;SDS011;33676;51.006;17.180;2023-03-01T11:48:24;20.40;;;18.30;;
47912;SDS011;33676;51.006;17.180;2023-03-01T11:51:19;19.50;;;17.50;;
47912;SDS011;33676;51.006;17.180;2023-03-01T11:54:01;19.90;;;17.90;;
47912;SDS011;33676;51.006;17.180;2023-03-01T11:57:14;19.30;;;17.40;;
47912;SDS011;33676;51.006;17.180;2023-03-01T12:03:54;20.80;;;18.00;;
47912;SDS011;33676;51.006;17.180;2023-03-01T12:07:00;18.70;;;16.90;;
47912;SDS011;33676;51.006;17.180;2023-03-01T12:10:23;17.50;;;15.80;;
47912;SDS011;33676;51.006;17.180;2023-03-01T12:13:05;17.60;;;15.70;;
47912;SDS011;33676;51.006;17.180;2023-03-01T12:24:42;22.30;;;20.00;;
47912;SDS011;33676;51.006;17.180;2023-03-01T12:43:31;19.30;;;17.40;;
47912;SDS011;33676;51.006;17.180;2023-03-01T12:46:25;16.10;;;14.60;;
47912;SDS011;33676;51.006;17.180;2023-03-01T12:49:28;19.30;;;17.30;;
47912;SDS011;33676;51.006;17.180;2023-03-01T12:52:43;18.00;;;16.10;;
47912;SDS011;33676;51.006;17.180;2023-03-01T12:55:29;19.40;;;17.20;;
47912;SDS011;33676;51.006;17.180;2023-03-01T13:10:26;18.70;;;17.00;;
47912;SDS011;33676;51.006;17.180;2023-03-01T13:15:41;18.10;;;16.10;;
47912;SDS011;33676;51.006;17.180;2023-03-01T13:20:49;17.20;;;15.60;;
47912;SDS011;33676;51.006;17.180;2023-03-01T13:33:49;15.40;;;14.00;;
47912;SDS011;33676;51.006;17.180;2023-03-01T13:36:45;16.00;;;14.30;;
47912;SDS011;33676;51.006;17.180;2023-03-01T13:39:39;16.00;;;14.10;;
47912;SDS011;33676;51.006;17.180;2023-03-01T13:45:14;15.20;;;13.80;;
47912;SDS011;33676;51.006;17.180;2023-03-01T13:48:21;12.60;;;11.40;;
47912;SDS011;33676;51.006;17.180;2023-03-01T13:51:22;15.00;;;13.60;;
47912;SDS011;33676;51.006;17.180;2023-03-01T13:53:54;13.50;;;12.20;;
47912;SDS011;33676;51.006;17.180;2023-03-01T13:56:26;32.90;;;29.40;;
47912;SDS011;33676;51.006;17.180;2023-03-01T13:59:04;13.80;;;12.50;;
47912;SDS011;33676;51.006;17.180;2023-03-01T14:01:40;13.20;;;11.90;;
47912;SDS011;33676;51.006;17.180;2023-03-01T14:04:21;16.10;;;13.80;;
47912;SDS011;33676;51.006;17.180;2023-03-01T14:07:16;12.30;;;11.20;;
47912;SDS011;33676;51.006;17.180;2023-03-01T14:09:51;12.00;;;10.80;;
47912;SDS011;33676;51.006;17.180;2023-03-01T14:12:48;11.60;;;9.20;;
47912;SDS011;33676;51.006;17.180;2023-03-01T14:15:34;17.60;;;9.80;;
47912;SDS011;33676;51.006;17.180;2023-03-01T14:18:21;8.20;;;7.50;;
47912;SDS011;33676;51.006;17.180;2023-03-01T14:21:01;9.30;;;8.60;;
47912;SDS011;33676;51.006;17.180;2023-03-01T14:23:38;7.70;;;7.00;;
47912;SDS011;33676;51.006;17.180;2023-03-01T14:26:10;7.30;;;6.80;;
47912;SDS011;33676;51.006;17.180;2023-03-01T14:28:40;7.70;;;7.00;;
47912;SDS011;33676;51.006;17.180;2023-03-01T14:34:45;12.80;;;8.70;;
47912;SDS011;33676;51.006;17.180;2023-03-01T14:37:27;8.70;;;7.90;;
47912;SDS011;33676;51.006;17.180;2023-03-01T14:40:00;8.40;;;7.60;;
47912;SDS011;33676;51.006;17.180;2023-03-01T14:42:35;8.80;;;8.10;;
47912;SDS011;33676;51.006;17.180;2023-03-01T14:45:05;9.80;;;8.90;;
47912;SDS011;33676;51.006;17.180;2023-03-01T14:47:36;8.10;;;7.50;;
47912;SDS011;33676;51.006;17.180;2023-03-01T14:50:26;8.60;;;7.90;;
47912;SDS011;33676;51.006;17.180;2023-03-01T14:52:59;10.50;;;8.70;;
47912;SDS011;33676;51.006;17.180;2023-03-01T14:55:33;9.60;;;8.80;;
47912;SDS011;33676;51.006;17.180;2023-03-01T14:58:11;10.30;;;9.30;;
47912;SDS011;33676;51.006;17.180;2023-03-01T15:00:53;10.20;;;8.00;;
47912;SDS011;33676;51.006;17.180;2023-03-01T15:03:38;8.80;;;7.90;;
47912;SDS011;33676;51.006;17.180;2023-03-01T15:06:15;9.00;;;8.20;;
47912;SDS011;33676;51.006;17.180;2023-03-01T15:08:51;9.00;;;8.10;;
47912;SDS011;33676;51.006;17.180;2023-03-01T15:11:31;7.90;;;7.30;;
47912;SDS011;33676;51.006;17.180;2023-03-01T15:14:01;8.40;;;7.60;;
47912;SDS011;33676;51.006;17.180;2023-03-01T15:16:55;9.20;;;8.30;;
47912;SDS011;33676;51.006;17.180;2023-03-01T15:19:24;10.70;;;7.30;;
47912;SDS011;33676;51.006;17.180;2023-03-01T15:21:56;9.20;;;8.40;;
47912;SDS011;33676;51.006;17.180;2023-03-01T15:24:25;9.60;;;8.80;;
47912;SDS011;33676;51.006;17.180;2023-03-01T15:26:56;8.90;;;8.20;;
47912;SDS011;33676;51.006;17.180;2023-03-01T15:29:30;12.50;;;11.30;;
47912;SDS011;33676;51.006;17.180;2023-03-01T15:32:02;10.90;;;9.80;;
47912;SDS011;33676;51.006;17.180;2023-03-01T15:34:35;10.70;;;9.80;;
47912;SDS011;33676;51.006;17.180;2023-03-01T15:37:06;10.70;;;9.70;;
47912;SDS011;33676;51.006;17.180;2023-03-01T15:40:26;10.60;;;9.70;;
47912;SDS011;33676;51.006;17.180;2023-03-01T15:43:04;10.40;;;9.30;;
47912;SDS011;33676;51.006;17.180;2023-03-01T15:45:34;13.50;;;10.20;;
47912;SDS011;33676;51.006;17.180;2023-03-01T15:48:15;13.70;;;10.60;;
47912;SDS011;33676;51.006;17.180;2023-03-01T15:50:57;18.60;;;10.70;;
47912;SDS011;33676;51.006;17.180;2023-03-01T15:53:27;13.60;;;10.20;;
47912;SDS011;33676;51.006;17.180;2023-03-01T15:55:56;12.10;;;11.00;;
47912;SDS011;33676;51.006;17.180;2023-03-01T15:58:25;12.10;;;10.70;;
47912;SDS011;33676;51.006;17.180;2023-03-01T16:00:53;12.20;;;10.90;;
47912;SDS011;33676;51.006;17.180;2023-03-01T16:05:57;12.60;;;10.80;;
47912;SDS011;33676;51.006;17.180;2023-03-01T16:08:25;12.10;;;10.90;;
47912;SDS011;33676;51.006;17.180;2023-03-01T16:10:53;11.60;;;10.40;;
47912;SDS011;33676;51.006;17.180;2023-03-01T16:13:22;12.70;;;11.40;;
47912;SDS011;33676;51.006;17.180;2023-03-01T16:15:51;15.90;;;11.60;;
47912;SDS011;33676;51.006;17.180;2023-03-01T16:18:20;13.20;;;12.00;;
47912;SDS011;33676;51.006;17.180;2023-03-01T16:20:48;14.50;;;11.90;;
47912;SDS011;33676;51.006;17.180;2023-03-01T16:23:16;18.80;;;13.40;;
47912;SDS011;33676;51.006;17.180;2023-03-01T16:25:45;12.80;;;11.50;;
47912;SDS011;33676;51.006;17.180;2023-03-01T16:28:13;14.20;;;12.70;;
47912;SDS011;33676;51.006;17.180;2023-03-01T16:30:46;11.70;;;10.50;;
47912;SDS011;33676;51.006;17.180;2023-03-01T16:33:17;12.40;;;11.10;;
47912;SDS011;33676;51.006;17.180;2023-03-01T16:36:01;16.70;;;11.80;;
47912;SDS011;33676;51.006;17.180;2023-03-01T16:38:36;16.00;;;12.10;;
47912;SDS011;33676;51.006;17.180;2023-03-01T16:41:05;15.80;;;12.40;;
47912;SDS011;33676;51.006;17.180;2023-03-01T16:43:33;14.40;;;12.20;;
47912;SDS011;33676;51.006;17.180;2023-03-01T16:46:27;15.80;;;13.10;;
47912;SDS011;33676;51.006;17.180;2023-03-01T16:48:56;20.40;;;14.50;;